Terminal Aerodrome Forecast
Issued by NWS Wilmington, NC

Home | Current Version | Previous Version | Text Only | Print | Product List | Glossary On
Versions: 1 2 3 4 5 6 7 8 9 10 11 12 13 14 15 16
982
FTUS42 KILM 281925 CCA
TAFFLO
TAF COR
KFLO 281925Z 2818/2918 25012KT P6SM FEW150
     FM282300 25009KT P6SM VCTS SCT050CB BKN150
     FM290200 26006KT P6SM BKN250=

USA.gov is the U.S. government's official web portal to all federal, state and local government web resources and services.